sensor_id;sensor_type;location;lat;lon;timestamp;P1;durP1;ratioP1;P2;durP2;ratioP2
56339;SDS011;42243;42.644;23.366;2023-05-14T00:00:49;3.95;;;2.60;;
56339;SDS011;42243;42.644;23.366;2023-05-14T00:03:14;2.75;;;2.55;;
56339;SDS011;42243;42.644;23.366;2023-05-14T00:05:40;3.05;;;2.70;;
56339;SDS011;42243;42.644;23.366;2023-05-14T00:08:05;3.03;;;2.70;;
56339;SDS011;42243;42.644;23.366;2023-05-14T00:10:30;4.22;;;2.85;;
56339;SDS011;42243;42.644;23.366;2023-05-14T00:12:56;3.58;;;2.70;;
56339;SDS011;42243;42.644;23.366;2023-05-14T00:15:21;4.05;;;2.65;;
56339;SDS011;42243;42.644;23.366;2023-05-14T00:17:47;4.38;;;2.70;;
56339;SDS011;42243;42.644;23.366;2023-05-14T00:20:12;2.97;;;2.40;;
56339;SDS011;42243;42.644;23.366;2023-05-14T00:22:38;4.60;;;2.90;;
56339;SDS011;42243;42.644;23.366;2023-05-14T00:25:04;3.45;;;2.85;;
56339;SDS011;42243;42.644;23.366;2023-05-14T00:27:31;3.80;;;2.72;;
56339;SDS011;42243;42.644;23.366;2023-05-14T00:29:56;4.03;;;2.90;;
56339;SDS011;42243;42.644;23.366;2023-05-14T00:32:22;4.75;;;3.40;;
56339;SDS011;42243;42.644;23.366;2023-05-14T00:34:48;5.00;;;2.75;;
56339;SDS011;42243;42.644;23.366;2023-05-14T00:37:13;5.43;;;3.10;;
56339;SDS011;42243;42.644;23.366;2023-05-14T00:39:38;4.07;;;2.42;;
56339;SDS011;42243;42.644;23.366;2023-05-14T00:42:04;4.53;;;2.83;;
56339;SDS011;42243;42.644;23.366;2023-05-14T00:44:30;3.17;;;2.83;;
56339;SDS011;42243;42.644;23.366;2023-05-14T00:46:55;4.90;;;2.60;;
56339;SDS011;42243;42.644;23.366;2023-05-14T00:49:20;4.05;;;2.83;;
56339;SDS011;42243;42.644;23.366;2023-05-14T00:51:47;4.38;;;2.85;;
56339;SDS011;42243;42.644;23.366;2023-05-14T00:54:14;3.05;;;2.67;;
56339;SDS011;42243;42.644;23.366;2023-05-14T00:56:41;3.03;;;2.70;;
56339;SDS011;42243;42.644;23.366;2023-05-14T00:59:09;4.97;;;2.63;;
56339;SDS011;42243;42.644;23.366;2023-05-14T01:01:34;4.63;;;2.45;;
56339;SDS011;42243;42.644;23.366;2023-05-14T01:03:59;5.50;;;2.78;;
56339;SDS011;42243;42.644;23.366;2023-05-14T01:06:47;2.47;;;2.28;;
56339;SDS011;42243;42.644;23.366;2023-05-14T01:12:18;3.25;;;2.50;;
56339;SDS011;42243;42.644;23.366;2023-05-14T01:17:30;2.45;;;2.20;;
56339;SDS011;42243;42.644;23.366;2023-05-14T01:19:57;2.95;;;2.20;;
56339;SDS011;42243;42.644;23.366;2023-05-14T01:22:24;7.22;;;2.88;;
56339;SDS011;42243;42.644;23.366;2023-05-14T01:24:49;3.42;;;2.72;;
56339;SDS011;42243;42.644;23.366;2023-05-14T01:27:16;2.95;;;2.38;;
56339;SDS011;42243;42.644;23.366;2023-05-14T01:32:28;2.67;;;2.10;;
56339;SDS011;42243;42.644;23.366;2023-05-14T01:34:55;7.47;;;2.33;;
56339;SDS011;42243;42.644;23.366;2023-05-14T01:37:24;3.83;;;2.20;;
56339;SDS011;42243;42.644;23.366;2023-05-14T01:39:51;2.95;;;2.30;;
56339;SDS011;42243;42.644;23.366;2023-05-14T01:42:17;3.30;;;2.42;;
56339;SDS011;42243;42.644;23.366;2023-05-14T01:44:42;6.28;;;2.25;;
56339;SDS011;42243;42.644;23.366;2023-05-14T01:47:09;5.72;;;2.20;;
56339;SDS011;42243;42.644;23.366;2023-05-14T01:49:34;2.20;;;1.90;;
56339;SDS011;42243;42.644;23.366;2023-05-14T01:52:01;2.95;;;2.33;;
56339;SDS011;42243;42.644;23.366;2023-05-14T01:54:26;3.78;;;2.45;;
56339;SDS011;42243;42.644;23.366;2023-05-14T01:56:52;4.88;;;2.38;;
56339;SDS011;42243;42.644;23.366;2023-05-14T01:59:17;6.65;;;3.00;;
56339;SDS011;42243;42.644;23.366;2023-05-14T02:01:42;2.97;;;2.47;;
56339;SDS011;42243;42.644;23.366;2023-05-14T02:04:08;2.97;;;2.30;;
56339;SDS011;42243;42.644;23.366;2023-05-14T02:06:33;3.72;;;2.70;;
56339;SDS011;42243;42.644;23.366;2023-05-14T02:08:59;4.20;;;2.30;;
56339;SDS011;42243;42.644;23.366;2023-05-14T02:11:24;6.07;;;2.47;;
56339;SDS011;42243;42.644;23.366;2023-05-14T02:13:50;10.88;;;2.38;;
56339;SDS011;42243;42.644;23.366;2023-05-14T02:16:15;5.05;;;2.55;;
56339;SDS011;42243;42.644;23.366;2023-05-14T02:18:41;3.50;;;2.40;;
56339;SDS011;42243;42.644;23.366;2023-05-14T02:21:06;5.05;;;2.40;;
56339;SDS011;42243;42.644;23.366;2023-05-14T02:23:31;4.30;;;2.45;;
56339;SDS011;42243;42.644;23.366;2023-05-14T02:25:57;2.90;;;2.35;;
56339;SDS011;42243;42.644;23.366;2023-05-14T02:28:22;5.85;;;2.45;;
56339;SDS011;42243;42.644;23.366;2023-05-14T02:30:48;2.78;;;2.47;;
56339;SDS011;42243;42.644;23.366;2023-05-14T02:33:13;3.05;;;2.60;;
56339;SDS011;42243;42.644;23.366;2023-05-14T02:35:38;2.85;;;2.20;;
56339;SDS011;42243;42.644;23.366;2023-05-14T02:38:04;6.75;;;2.45;;
56339;SDS011;42243;42.644;23.366;2023-05-14T02:40:30;3.55;;;2.30;;
56339;SDS011;42243;42.644;23.366;2023-05-14T02:42:55;3.25;;;2.38;;
56339;SDS011;42243;42.644;23.366;2023-05-14T02:45:21;2.47;;;2.28;;
56339;SDS011;42243;42.644;23.366;2023-05-14T02:47:46;2.97;;;2.15;;
56339;SDS011;42243;42.644;23.366;2023-05-14T02:50:12;2.80;;;2.50;;
56339;SDS011;42243;42.644;23.366;2023-05-14T02:52:37;3.53;;;2.38;;
56339;SDS011;42243;42.644;23.366;2023-05-14T02:55:03;2.80;;;2.45;;
56339;SDS011;42243;42.644;23.366;2023-05-14T02:57:28;4.30;;;2.35;;
56339;SDS011;42243;42.644;23.366;2023-05-14T02:59:54;3.78;;;2.15;;
56339;SDS011;42243;42.644;23.366;2023-05-14T03:02:19;2.63;;;2.42;;
56339;SDS011;42243;42.644;23.366;2023-05-14T03:04:45;2.67;;;2.47;;
56339;SDS011;42243;42.644;23.366;2023-05-14T03:07:10;4.60;;;2.60;;
56339;SDS011;42243;42.644;23.366;2023-05-14T03:09:36;4.80;;;2.55;;
56339;SDS011;42243;42.644;23.366;2023-05-14T03:12:01;5.80;;;2.60;;
56339;SDS011;42243;42.644;23.366;2023-05-14T03:14:26;2.50;;;2.30;;
56339;SDS011;42243;42.644;23.366;2023-05-14T03:16:52;5.78;;;2.63;;
56339;SDS011;42243;42.644;23.366;2023-05-14T03:19:17;4.10;;;2.40;;
56339;SDS011;42243;42.644;23.366;2023-05-14T03:21:43;4.43;;;2.50;;
56339;SDS011;42243;42.644;23.366;2023-05-14T03:24:08;3.55;;;2.30;;
56339;SDS011;42243;42.644;23.366;2023-05-14T03:26:33;8.43;;;2.50;;
56339;SDS011;42243;42.644;23.366;2023-05-14T03:29:00;2.50;;;2.30;;
56339;SDS011;42243;42.644;23.366;2023-05-14T03:31:26;3.20;;;2.75;;
56339;SDS011;42243;42.644;23.366;2023-05-14T03:33:51;2.47;;;2.25;;
56339;SDS011;42243;42.644;23.366;2023-05-14T03:36:17;5.43;;;2.33;;
56339;SDS011;42243;42.644;23.366;2023-05-14T03:38:42;4.95;;;2.63;;
56339;SDS011;42243;42.644;23.366;2023-05-14T03:41:08;3.83;;;2.22;;
56339;SDS011;42243;42.644;23.366;2023-05-14T03:43:33;4.05;;;2.92;;
56339;SDS011;42243;42.644;23.366;2023-05-14T03:45:59;2.80;;;2.50;;
56339;SDS011;42243;42.644;23.366;2023-05-14T03:48:24;3.72;;;2.80;;
56339;SDS011;42243;42.644;23.366;2023-05-14T03:50:49;2.40;;;2.20;;
56339;SDS011;42243;42.644;23.366;2023-05-14T03:53:15;4.10;;;2.80;;
56339;SDS011;42243;42.644;23.366;2023-05-14T03:55:40;3.22;;;2.75;;
56339;SDS011;42243;42.644;23.366;2023-05-14T03:58:06;6.60;;;2.65;;
56339;SDS011;42243;42.644;23.366;2023-05-14T04:00:37;2.42;;;2.17;;
56339;SDS011;42243;42.644;23.366;2023-05-14T04:03:04;8.18;;;2.33;;
56339;SDS011;42243;42.644;23.366;2023-05-14T04:05:29;4.53;;;2.63;;
56339;SDS011;42243;42.644;23.366;2023-05-14T04:07:55;4.68;;;2.60;;
56339;SDS011;42243;42.644;23.366;2023-05-14T04:10:22;2.83;;;2.50;;
56339;SDS011;42243;42.644;23.366;2023-05-14T04:12:47;3.92;;;2.53;;
56339;SDS011;42243;42.644;23.366;2023-05-14T04:15:12;2.83;;;2.60;;
56339;SDS011;42243;42.644;23.366;2023-05-14T04:17:38;4.13;;;2.60;;
56339;SDS011;42243;42.644;23.366;2023-05-14T04:20:04;2.72;;;2.50;;
56339;SDS011;42243;42.644;23.366;2023-05-14T04:22:30;3.50;;;2.40;;
56339;SDS011;42243;42.644;23.366;2023-05-14T04:24:56;2.67;;;2.42;;
56339;SDS011;42243;42.644;23.366;2023-05-14T04:27:21;3.17;;;2.50;;
56339;SDS011;42243;42.644;23.366;2023-05-14T04:29:47;3.67;;;2.72;;
56339;SDS011;42243;42.644;23.366;2023-05-14T04:32:13;3.55;;;2.28;;
56339;SDS011;42243;42.644;23.366;2023-05-14T04:34:39;5.38;;;2.70;;
56339;SDS011;42243;42.644;23.366;2023-05-14T04:37:05;2.92;;;2.58;;
56339;SDS011;42243;42.644;23.366;2023-05-14T04:39:30;3.55;;;2.42;;
56339;SDS011;42243;42.644;23.366;2023-05-14T04:41:56;3.28;;;2.60;;
56339;SDS011;42243;42.644;23.366;2023-05-14T04:44:21;2.40;;;2.20;;
56339;SDS011;42243;42.644;23.366;2023-05-14T04:46:46;3.72;;;2.53;;
56339;SDS011;42243;42.644;23.366;2023-05-14T04:49:12;5.70;;;2.50;;
56339;SDS011;42243;42.644;23.366;2023-05-14T04:51:37;3.13;;;2.83;;
56339;SDS011;42243;42.644;23.366;2023-05-14T04:54:03;9.73;;;2.40;;
56339;SDS011;42243;42.644;23.366;2023-05-14T04:56:28;5.47;;;2.78;;
56339;SDS011;42243;42.644;23.366;2023-05-14T04:58:54;2.83;;;2.55;;
56339;SDS011;42243;42.644;23.366;2023-05-14T05:01:19;6.68;;;2.50;;
56339;SDS011;42243;42.644;23.366;2023-05-14T05:03:46;3.58;;;2.70;;
56339;SDS011;42243;42.644;23.366;2023-05-14T05:06:11;5.13;;;2.75;;
56339;SDS011;42243;42.644;23.366;2023-05-14T05:08:36;5.07;;;2.50;;
56339;SDS011;42243;42.644;23.366;2023-05-14T05:11:02;3.75;;;2.95;;
56339;SDS011;42243;42.644;23.366;2023-05-14T05:13:28;3.65;;;2.90;;
56339;SDS011;42243;42.644;23.366;2023-05-14T05:15:53;3.92;;;2.50;;
56339;SDS011;42243;42.644;23.366;2023-05-14T05:18:19;5.18;;;2.63;;
56339;SDS011;42243;42.644;23.366;2023-05-14T05:20:44;2.85;;;2.63;;
56339;SDS011;42243;42.644;23.366;2023-05-14T05:23:09;3.65;;;2.85;;
56339;SDS011;42243;42.644;23.366;2023-05-14T05:25:35;5.05;;;2.97;;
56339;SDS011;42243;42.644;23.366;2023-05-14T05:28:00;3.92;;;2.70;;
56339;SDS011;42243;42.644;23.366;2023-05-14T05:30:26;4.65;;;3.00;;
56339;SDS011;42243;42.644;23.366;2023-05-14T05:32:51;5.22;;;2.80;;
56339;SDS011;42243;42.644;23.366;2023-05-14T05:35:17;5.07;;;3.03;;
56339;SDS011;42243;42.644;23.366;2023-05-14T05:37:42;4.82;;;3.30;;
56339;SDS011;42243;42.644;23.366;2023-05-14T05:40:09;5.03;;;3.38;;
56339;SDS011;42243;42.644;23.366;2023-05-14T05:42:35;5.45;;;3.22;;
56339;SDS011;42243;42.644;23.366;2023-05-14T05:45:00;4.25;;;3.08;;
56339;SDS011;42243;42.644;23.366;2023-05-14T05:47:25;4.97;;;3.40;;
56339;SDS011;42243;42.644;23.366;2023-05-14T05:49:51;4.47;;;3.63;;
56339;SDS011;42243;42.644;23.366;2023-05-14T05:52:17;4.47;;;3.63;;
56339;SDS011;42243;42.644;23.366;2023-05-14T05:54:43;7.28;;;3.40;;
56339;SDS011;42243;42.644;23.366;2023-05-14T05:57:08;4.60;;;3.88;;
56339;SDS011;42243;42.644;23.366;2023-05-14T05:59:33;5.70;;;3.30;;
56339;SDS011;42243;42.644;23.366;2023-05-14T06:02:00;5.93;;;3.38;;
56339;SDS011;42243;42.644;23.366;2023-05-14T06:04:25;4.43;;;3.50;;
56339;SDS011;42243;42.644;23.366;2023-05-14T06:06:50;5.65;;;3.63;;
56339;SDS011;42243;42.644;23.366;2023-05-14T06:09:16;4.40;;;3.50;;
56339;SDS011;42243;42.644;23.366;2023-05-14T06:11:41;5.68;;;3.72;;
56339;SDS011;42243;42.644;23.366;2023-05-14T06:14:07;5.35;;;3.38;;
56339;SDS011;42243;42.644;23.366;2023-05-14T06:16:32;5.20;;;3.90;;
56339;SDS011;42243;42.644;23.366;2023-05-14T06:18:58;5.55;;;3.50;;
56339;SDS011;42243;42.644;23.366;2023-05-14T06:21:23;7.03;;;3.70;;
56339;SDS011;42243;42.644;23.366;2023-05-14T06:23:49;6.05;;;3.55;;
56339;SDS011;42243;42.644;23.366;2023-05-14T06:26:14;6.20;;;4.13;;
56339;SDS011;42243;42.644;23.366;2023-05-14T06:28:40;5.63;;;4.03;;
56339;SDS011;42243;42.644;23.366;2023-05-14T06:31:05;5.30;;;3.78;;
56339;SDS011;42243;42.644;23.366;2023-05-14T06:33:30;5.40;;;3.90;;
56339;SDS011;42243;42.644;23.366;2023-05-14T06:35:59;5.82;;;4.05;;
56339;SDS011;42243;42.644;23.366;2023-05-14T06:38:29;4.63;;;3.75;;
56339;SDS011;42243;42.644;23.366;2023-05-14T06:40:54;4.80;;;3.53;;
56339;SDS011;42243;42.644;23.366;2023-05-14T06:43:19;7.10;;;3.70;;
56339;SDS011;42243;42.644;23.366;2023-05-14T06:45:48;6.88;;;4.00;;
56339;SDS011;42243;42.644;23.366;2023-05-14T06:48:15;5.53;;;4.13;;
56339;SDS011;42243;42.644;23.366;2023-05-14T06:50:42;7.72;;;4.05;;
56339;SDS011;42243;42.644;23.366;2023-05-14T06:53:08;5.07;;;4.00;;
56339;SDS011;42243;42.644;23.366;2023-05-14T06:55:34;7.97;;;4.40;;
56339;SDS011;42243;42.644;23.366;2023-05-14T06:58:00;7.55;;;4.28;;
56339;SDS011;42243;42.644;23.366;2023-05-14T07:00:25;5.70;;;4.43;;
56339;SDS011;42243;42.644;23.366;2023-05-14T07:02:50;7.20;;;4.78;;
56339;SDS011;42243;42.644;23.366;2023-05-14T07:05:16;7.07;;;4.55;;
56339;SDS011;42243;42.644;23.366;2023-05-14T07:07:41;6.97;;;4.38;;
56339;SDS011;42243;42.644;23.366;2023-05-14T07:10:07;7.40;;;4.68;;
56339;SDS011;42243;42.644;23.366;2023-05-14T07:12:32;6.35;;;4.53;;
56339;SDS011;42243;42.644;23.366;2023-05-14T07:14:57;7.25;;;5.35;;
56339;SDS011;42243;42.644;23.366;2023-05-14T07:17:23;7.28;;;4.50;;
56339;SDS011;42243;42.644;23.366;2023-05-14T07:19:48;9.93;;;5.82;;
56339;SDS011;42243;42.644;23.366;2023-05-14T07:22:15;6.45;;;5.50;;
56339;SDS011;42243;42.644;23.366;2023-05-14T07:24:40;7.53;;;5.47;;
56339;SDS011;42243;42.644;23.366;2023-05-14T07:27:05;8.90;;;5.75;;
56339;SDS011;42243;42.644;23.366;2023-05-14T07:29:32;8.35;;;4.90;;
56339;SDS011;42243;42.644;23.366;2023-05-14T07:31:59;6.80;;;5.32;;
56339;SDS011;42243;42.644;23.366;2023-05-14T07:34:25;7.07;;;5.80;;
56339;SDS011;42243;42.644;23.366;2023-05-14T07:36:50;8.82;;;5.88;;
56339;SDS011;42243;42.644;23.366;2023-05-14T07:39:16;9.77;;;6.30;;
56339;SDS011;42243;42.644;23.366;2023-05-14T07:41:41;8.68;;;5.30;;
56339;SDS011;42243;42.644;23.366;2023-05-14T07:44:07;9.35;;;5.55;;
56339;SDS011;42243;42.644;23.366;2023-05-14T07:46:32;12.55;;;6.63;;
56339;SDS011;42243;42.644;23.366;2023-05-14T07:48:58;10.15;;;6.30;;
56339;SDS011;42243;42.644;23.366;2023-05-14T07:51:23;7.20;;;5.13;;
56339;SDS011;42243;42.644;23.366;2023-05-14T07:53:52;6.00;;;4.65;;
56339;SDS011;42243;42.644;23.366;2023-05-14T07:56:18;6.40;;;5.20;;
56339;SDS011;42243;42.644;23.366;2023-05-14T07:58:44;11.35;;;5.40;;
56339;SDS011;42243;42.644;23.366;2023-05-14T08:01:09;8.02;;;5.32;;
56339;SDS011;42243;42.644;23.366;2023-05-14T08:03:36;8.18;;;6.13;;
56339;SDS011;42243;42.644;23.366;2023-05-14T08:06:02;10.80;;;6.90;;
56339;SDS011;42243;42.644;23.366;2023-05-14T08:08:29;10.55;;;6.07;;
56339;SDS011;42243;42.644;23.366;2023-05-14T08:10:55;7.72;;;5.13;;
56339;SDS011;42243;42.644;23.366;2023-05-14T08:13:20;6.57;;;5.88;;
56339;SDS011;42243;42.644;23.366;2023-05-14T08:15:46;7.50;;;5.47;;
56339;SDS011;42243;42.644;23.366;2023-05-14T08:18:11;7.25;;;5.97;;
56339;SDS011;42243;42.644;23.366;2023-05-14T08:20:36;8.70;;;6.80;;
56339;SDS011;42243;42.644;23.366;2023-05-14T08:23:02;10.48;;;6.07;;
56339;SDS011;42243;42.644;23.366;2023-05-14T08:25:27;8.98;;;6.70;;
56339;SDS011;42243;42.644;23.366;2023-05-14T08:27:53;8.43;;;5.80;;
56339;SDS011;42243;42.644;23.366;2023-05-14T08:30:19;7.95;;;4.80;;
56339;SDS011;42243;42.644;23.366;2023-05-14T08:32:44;6.43;;;5.03;;
56339;SDS011;42243;42.644;23.366;2023-05-14T08:35:10;7.32;;;4.82;;
56339;SDS011;42243;42.644;23.366;2023-05-14T08:37:35;9.35;;;4.63;;
56339;SDS011;42243;42.644;23.366;2023-05-14T08:40:01;5.57;;;4.43;;
56339;SDS011;42243;42.644;23.366;2023-05-14T08:42:27;7.55;;;5.43;;
56339;SDS011;42243;42.644;23.366;2023-05-14T08:44:59;7.85;;;5.40;;
56339;SDS011;42243;42.644;23.366;2023-05-14T08:47:28;5.55;;;4.80;;
56339;SDS011;42243;42.644;23.366;2023-05-14T08:52:31;6.30;;;4.80;;
56339;SDS011;42243;42.644;23.366;2023-05-14T08:55:02;7.65;;;5.10;;
56339;SDS011;42243;42.644;23.366;2023-05-14T08:57:30;6.97;;;5.28;;
56339;SDS011;42243;42.644;23.366;2023-05-14T08:59:57;10.32;;;5.10;;
56339;SDS011;42243;42.644;23.366;2023-05-14T09:02:23;5.07;;;4.57;;
56339;SDS011;42243;42.644;23.366;2023-05-14T09:04:58;7.65;;;4.63;;
56339;SDS011;42243;42.644;23.366;2023-05-14T09:07:24;7.30;;;4.93;;
56339;SDS011;42243;42.644;23.366;2023-05-14T09:09:50;6.28;;;4.85;;
56339;SDS011;42243;42.644;23.366;2023-05-14T09:12:17;8.65;;;5.07;;
56339;SDS011;42243;42.644;23.366;2023-05-14T09:14:43;8.60;;;5.25;;
56339;SDS011;42243;42.644;23.366;2023-05-14T09:17:09;8.27;;;5.93;;
56339;SDS011;42243;42.644;23.366;2023-05-14T09:19:38;5.70;;;5.10;;
56339;SDS011;42243;42.644;23.366;2023-05-14T09:22:05;7.63;;;5.43;;
56339;SDS011;42243;42.644;23.366;2023-05-14T09:24:33;7.18;;;5.68;;
56339;SDS011;42243;42.644;23.366;2023-05-14T09:26:58;7.78;;;6.10;;
56339;SDS011;42243;42.644;23.366;2023-05-14T09:29:26;8.68;;;5.43;;
56339;SDS011;42243;42.644;23.366;2023-05-14T09:31:53;7.32;;;5.88;;
56339;SDS011;42243;42.644;23.366;2023-05-14T09:34:23;5.78;;;5.15;;
56339;SDS011;42243;42.644;23.366;2023-05-14T09:36:56;7.38;;;5.57;;
56339;SDS011;42243;42.644;23.366;2023-05-14T09:39:23;12.98;;;6.22;;
56339;SDS011;42243;42.644;23.366;2023-05-14T09:41:49;5.50;;;4.95;;
56339;SDS011;42243;42.644;23.366;2023-05-14T09:44:16;4.55;;;3.97;;
56339;SDS011;42243;42.644;23.366;2023-05-14T09:46:41;4.18;;;3.70;;
56339;SDS011;42243;42.644;23.366;2023-05-14T09:49:07;4.70;;;4.20;;
56339;SDS011;42243;42.644;23.366;2023-05-14T09:51:32;4.60;;;4.10;;
56339;SDS011;42243;42.644;23.366;2023-05-14T09:53:58;8.88;;;4.90;;
56339;SDS011;42243;42.644;23.366;2023-05-14T09:56:24;9.27;;;4.45;;
56339;SDS011;42243;42.644;23.366;2023-05-14T09:58:50;9.68;;;7.93;;
56339;SDS011;42243;42.644;23.366;2023-05-14T10:01:16;4.95;;;4.18;;
56339;SDS011;42243;42.644;23.366;2023-05-14T10:03:43;3.95;;;3.38;;
56339;SDS011;42243;42.644;23.366;2023-05-14T10:06:09;4.60;;;3.22;;
56339;SDS011;42243;42.644;23.366;2023-05-14T10:08:40;3.28;;;3.05;;
56339;SDS011;42243;42.644;23.366;2023-05-14T10:11:10;3.17;;;2.95;;
56339;SDS011;42243;42.644;23.366;2023-05-14T10:13:41;4.07;;;2.80;;
56339;SDS011;42243;42.644;23.366;2023-05-14T10:16:20;3.08;;;2.78;;
56339;SDS011;42243;42.644;23.366;2023-05-14T10:18:52;4.00;;;2.80;;
56339;SDS011;42243;42.644;23.366;2023-05-14T10:21:24;3.58;;;3.28;;
56339;SDS011;42243;42.644;23.366;2023-05-14T10:23:53;4.93;;;4.40;;
56339;SDS011;42243;42.644;23.366;2023-05-14T10:26:19;5.82;;;5.13;;
56339;SDS011;42243;42.644;23.366;2023-05-14T10:28:45;16.75;;;8.95;;
56339;SDS011;42243;42.644;23.366;2023-05-14T10:31:11;6.60;;;4.72;;
56339;SDS011;42243;42.644;23.366;2023-05-14T10:33:55;5.32;;;4.82;;
56339;SDS011;42243;42.644;23.366;2023-05-14T10:36:20;7.97;;;5.60;;
56339;SDS011;42243;42.644;23.366;2023-05-14T10:38:46;5.88;;;5.03;;
56339;SDS011;42243;42.644;23.366;2023-05-14T10:41:20;5.72;;;4.75;;
56339;SDS011;42243;42.644;23.366;2023-05-14T10:43:45;8.18;;;5.20;;
56339;SDS011;42243;42.644;23.366;2023-05-14T10:46:12;9.27;;;4.15;;
56339;SDS011;42243;42.644;23.366;2023-05-14T10:48:39;4.28;;;3.45;;
56339;SDS011;42243;42.644;23.366;2023-05-14T10:51:07;3.90;;;3.47;;
56339;SDS011;42243;42.644;23.366;2023-05-14T10:53:38;5.32;;;3.40;;
56339;SDS011;42243;42.644;23.366;2023-05-14T10:56:05;4.30;;;3.67;;
56339;SDS011;42243;42.644;23.366;2023-05-14T10:58:50;6.50;;;5.75;;
56339;SDS011;42243;42.644;23.366;2023-05-14T11:01:15;5.57;;;3.92;;
56339;SDS011;42243;42.644;23.366;2023-05-14T11:03:42;6.32;;;3.50;;
56339;SDS011;42243;42.644;23.366;2023-05-14T11:06:10;5.35;;;3.15;;
56339;SDS011;42243;42.644;23.366;2023-05-14T11:08:37;3.40;;;3.10;;
56339;SDS011;42243;42.644;23.366;2023-05-14T11:11:04;3.70;;;3.17;;
56339;SDS011;42243;42.644;23.366;2023-05-14T11:13:33;4.95;;;3.60;;
56339;SDS011;42243;42.644;23.366;2023-05-14T11:15:59;4.63;;;3.80;;
56339;SDS011;42243;42.644;23.366;2023-05-14T11:18:30;4.32;;;3.70;;
56339;SDS011;42243;42.644;23.366;2023-05-14T11:20:58;5.55;;;4.03;;
56339;SDS011;42243;42.644;23.366;2023-05-14T11:23:24;7.85;;;3.97;;
56339;SDS011;42243;42.644;23.366;2023-05-14T11:25:51;4.60;;;4.00;;
56339;SDS011;42243;42.644;23.366;2023-05-14T11:28:18;5.57;;;4.47;;
56339;SDS011;42243;42.644;23.366;2023-05-14T11:30:48;5.72;;;5.10;;
56339;SDS011;42243;42.644;23.366;2023-05-14T11:33:14;4.78;;;4.25;;
56339;SDS011;42243;42.644;23.366;2023-05-14T11:35:41;5.10;;;4.60;;
56339;SDS011;42243;42.644;23.366;2023-05-14T11:38:18;6.53;;;5.03;;
56339;SDS011;42243;42.644;23.366;2023-05-14T11:40:54;5.65;;;5.10;;
56339;SDS011;42243;42.644;23.366;2023-05-14T11:43:20;6.68;;;5.85;;
56339;SDS011;42243;42.644;23.366;2023-05-14T11:45:49;5.78;;;5.28;;
56339;SDS011;42243;42.644;23.366;2023-05-14T11:48:16;6.20;;;5.57;;
56339;SDS011;42243;42.644;23.366;2023-05-14T11:50:49;6.18;;;5.20;;
56339;SDS011;42243;42.644;23.366;2023-05-14T11:53:19;6.43;;;5.75;;
56339;SDS011;42243;42.644;23.366;2023-05-14T11:55:49;6.75;;;5.93;;
56339;SDS011;42243;42.644;23.366;2023-05-14T11:58:14;6.07;;;5.50;;
56339;SDS011;42243;42.644;23.366;2023-05-14T12:00:43;8.05;;;5.95;;
56339;SDS011;42243;42.644;23.366;2023-05-14T12:03:09;7.03;;;6.28;;
56339;SDS011;42243;42.644;23.366;2023-05-14T12:05:36;6.60;;;5.93;;
56339;SDS011;42243;42.644;23.366;2023-05-14T12:08:03;5.90;;;5.30;;
56339;SDS011;42243;42.644;23.366;2023-05-14T12:10:43;6.80;;;6.10;;
56339;SDS011;42243;42.644;23.366;2023-05-14T12:13:09;5.75;;;5.13;;
56339;SDS011;42243;42.644;23.366;2023-05-14T12:15:34;6.22;;;5.55;;
56339;SDS011;42243;42.644;23.366;2023-05-14T12:18:00;7.40;;;4.90;;
56339;SDS011;42243;42.644;23.366;2023-05-14T12:20:26;6.78;;;5.53;;
56339;SDS011;42243;42.644;23.366;2023-05-14T12:22:53;6.60;;;4.68;;
56339;SDS011;42243;42.644;23.366;2023-05-14T12:25:19;4.82;;;4.32;;
56339;SDS011;42243;42.644;23.366;2023-05-14T12:27:44;5.25;;;4.78;;
56339;SDS011;42243;42.644;23.366;2023-05-14T12:30:10;5.70;;;5.20;;
56339;SDS011;42243;42.644;23.366;2023-05-14T12:32:37;5.60;;;5.00;;
56339;SDS011;42243;42.644;23.366;2023-05-14T12:35:06;7.30;;;6.60;;
56339;SDS011;42243;42.644;23.366;2023-05-14T12:37:32;5.30;;;4.68;;
56339;SDS011;42243;42.644;23.366;2023-05-14T12:39:58;4.95;;;4.55;;
56339;SDS011;42243;42.644;23.366;2023-05-14T12:42:23;5.28;;;4.78;;
56339;SDS011;42243;42.644;23.366;2023-05-14T12:44:48;5.35;;;4.80;;
56339;SDS011;42243;42.644;23.366;2023-05-14T12:47:14;6.13;;;5.53;;
56339;SDS011;42243;42.644;23.366;2023-05-14T12:49:40;5.72;;;5.07;;
56339;SDS011;42243;42.644;23.366;2023-05-14T12:52:06;5.47;;;4.97;;
56339;SDS011;42243;42.644;23.366;2023-05-14T12:54:33;5.88;;;5.28;;
56339;SDS011;42243;42.644;23.366;2023-05-14T12:56:58;6.55;;;5.95;;
56339;SDS011;42243;42.644;23.366;2023-05-14T12:59:24;8.05;;;7.25;;
56339;SDS011;42243;42.644;23.366;2023-05-14T13:01:49;7.53;;;6.25;;
56339;SDS011;42243;42.644;23.366;2023-05-14T13:04:14;8.10;;;6.25;;
56339;SDS011;42243;42.644;23.366;2023-05-14T13:06:40;6.70;;;5.68;;
56339;SDS011;42243;42.644;23.366;2023-05-14T13:09:06;6.97;;;6.20;;
56339;SDS011;42243;42.644;23.366;2023-05-14T13:11:32;7.53;;;6.03;;
56339;SDS011;42243;42.644;23.366;2023-05-14T13:13:58;8.45;;;6.25;;
56339;SDS011;42243;42.644;23.366;2023-05-14T13:16:24;6.20;;;5.70;;
56339;SDS011;42243;42.644;23.366;2023-05-14T13:18:51;6.45;;;5.85;;
56339;SDS011;42243;42.644;23.366;2023-05-14T13:21:16;7.18;;;6.45;;
56339;SDS011;42243;42.644;23.366;2023-05-14T13:23:42;7.65;;;6.60;;
56339;SDS011;42243;42.644;23.366;2023-05-14T13:26:07;7.47;;;6.43;;
56339;SDS011;42243;42.644;23.366;2023-05-14T13:28:32;6.80;;;6.10;;
56339;SDS011;42243;42.644;23.366;2023-05-14T13:31:08;6.82;;;6.22;;
56339;SDS011;42243;42.644;23.366;2023-05-14T13:33:35;8.02;;;7.22;;
56339;SDS011;42243;42.644;23.366;2023-05-14T13:36:01;7.63;;;6.85;;
56339;SDS011;42243;42.644;23.366;2023-05-14T13:38:27;7.57;;;6.85;;
56339;SDS011;42243;42.644;23.366;2023-05-14T13:40:53;8.10;;;7.30;;
56339;SDS011;42243;42.644;23.366;2023-05-14T13:43:21;8.75;;;7.53;;
56339;SDS011;42243;42.644;23.366;2023-05-14T13:45:47;8.43;;;7.63;;
56339;SDS011;42243;42.644;23.366;2023-05-14T13:48:12;9.50;;;8.18;;
56339;SDS011;42243;42.644;23.366;2023-05-14T13:50:38;13.75;;;8.50;;
56339;SDS011;42243;42.644;23.366;2023-05-14T13:53:03;10.10;;;8.80;;
56339;SDS011;42243;42.644;23.366;2023-05-14T13:55:29;9.57;;;8.50;;
56339;SDS011;42243;42.644;23.366;2023-05-14T13:57:54;11.02;;;8.38;;
56339;SDS011;42243;42.644;23.366;2023-05-14T14:00:20;9.65;;;8.73;;
56339;SDS011;42243;42.644;23.366;2023-05-14T14:02:45;9.85;;;8.93;;
56339;SDS011;42243;42.644;23.366;2023-05-14T14:05:11;9.50;;;8.63;;
56339;SDS011;42243;42.644;23.366;2023-05-14T14:07:36;9.88;;;8.52;;
56339;SDS011;42243;42.644;23.366;2023-05-14T14:10:03;9.82;;;8.80;;
56339;SDS011;42243;42.644;23.366;2023-05-14T14:12:29;10.35;;;9.35;;
56339;SDS011;42243;42.644;23.366;2023-05-14T14:14:55;10.43;;;8.73;;
56339;SDS011;42243;42.644;23.366;2023-05-14T14:17:20;9.13;;;8.13;;
56339;SDS011;42243;42.644;23.366;2023-05-14T14:19:46;9.70;;;8.80;;
56339;SDS011;42243;42.644;23.366;2023-05-14T14:22:11;9.07;;;8.13;;
56339;SDS011;42243;42.644;23.366;2023-05-14T14:24:38;10.27;;;7.47;;
56339;SDS011;42243;42.644;23.366;2023-05-14T14:27:03;8.57;;;7.80;;
56339;SDS011;42243;42.644;23.366;2023-05-14T14:29:29;9.27;;;7.82;;
56339;SDS011;42243;42.644;23.366;2023-05-14T14:31:55;13.95;;;9.70;;
56339;SDS011;42243;42.644;23.366;2023-05-14T14:34:21;9.43;;;7.90;;
56339;SDS011;42243;42.644;23.366;2023-05-14T14:36:46;9.45;;;8.55;;
56339;SDS011;42243;42.644;23.366;2023-05-14T14:39:11;9.13;;;8.20;;